sensor_id;sensor_type;location;lat;lon;timestamp;P1;durP1;ratioP1;P2;durP2;ratioP2
56321;SDS011;42227;6.376;-10.782;2023-04-24T00:00:55;73.40;;;45.72;;
56321;SDS011;42227;6.376;-10.782;2023-04-24T00:03:24;68.85;;;39.78;;
56321;SDS011;42227;6.376;-10.782;2023-04-24T00:05:52;75.47;;;37.75;;
56321;SDS011;42227;6.376;-10.782;2023-04-24T00:08:21;86.15;;;38.15;;
56321;SDS011;42227;6.376;-10.782;2023-04-24T00:10:49;64.53;;;33.38;;
56321;SDS011;42227;6.376;-10.782;2023-04-24T00:13:18;53.50;;;30.88;;
56321;SDS011;42227;6.376;-10.782;2023-04-24T00:15:46;89.40;;;57.35;;
56321;SDS011;42227;6.376;-10.782;2023-04-24T00:18:14;95.15;;;47.00;;
56321;SDS011;42227;6.376;-10.782;2023-04-24T00:20:42;111.85;;;58.28;;
56321;SDS011;42227;6.376;-10.782;2023-04-24T00:23:11;143.93;;;69.82;;
56321;SDS011;42227;6.376;-10.782;2023-04-24T00:25:39;87.57;;;39.95;;
56321;SDS011;42227;6.376;-10.782;2023-04-24T00:28:07;88.53;;;39.97;;
56321;SDS011;42227;6.376;-10.782;2023-04-24T00:30:35;60.63;;;27.90;;
56321;SDS011;42227;6.376;-10.782;2023-04-24T00:33:04;49.78;;;22.40;;
56321;SDS011;42227;6.376;-10.782;2023-04-24T00:35:32;37.80;;;18.95;;
56321;SDS011;42227;6.376;-10.782;2023-04-24T00:38:00;41.85;;;19.63;;
56321;SDS011;42227;6.376;-10.782;2023-04-24T00:40:28;47.92;;;21.73;;
56321;SDS011;42227;6.376;-10.782;2023-04-24T00:42:57;53.33;;;24.40;;
56321;SDS011;42227;6.376;-10.782;2023-04-24T00:45:25;42.38;;;20.23;;
56321;SDS011;42227;6.376;-10.782;2023-04-24T00:47:54;52.80;;;25.10;;
56321;SDS011;42227;6.376;-10.782;2023-04-24T00:50:23;44.20;;;23.77;;
56321;SDS011;42227;6.376;-10.782;2023-04-24T00:52:52;46.85;;;24.35;;
56321;SDS011;42227;6.376;-10.782;2023-04-24T00:55:20;33.30;;;20.85;;
56321;SDS011;42227;6.376;-10.782;2023-04-24T00:57:49;31.30;;;19.05;;
56321;SDS011;42227;6.376;-10.782;2023-04-24T01:00:17;30.85;;;15.82;;
56321;SDS011;42227;6.376;-10.782;2023-04-24T01:02:46;35.90;;;16.65;;
56321;SDS011;42227;6.376;-10.782;2023-04-24T01:05:15;32.70;;;16.10;;
56321;SDS011;42227;6.376;-10.782;2023-04-24T01:07:45;41.03;;;16.67;;
56321;SDS011;42227;6.376;-10.782;2023-04-24T01:10:13;44.53;;;17.63;;
56321;SDS011;42227;6.376;-10.782;2023-04-24T01:12:44;30.83;;;14.52;;
56321;SDS011;42227;6.376;-10.782;2023-04-24T01:15:13;21.17;;;13.88;;
56321;SDS011;42227;6.376;-10.782;2023-04-24T01:17:41;27.83;;;12.95;;
56321;SDS011;42227;6.376;-10.782;2023-04-24T01:20:09;23.35;;;12.05;;
56321;SDS011;42227;6.376;-10.782;2023-04-24T01:22:40;20.73;;;12.23;;
56321;SDS011;42227;6.376;-10.782;2023-04-24T01:25:09;24.77;;;10.18;;
56321;SDS011;42227;6.376;-10.782;2023-04-24T01:27:37;22.13;;;10.20;;
56321;SDS011;42227;6.376;-10.782;2023-04-24T01:30:06;31.08;;;10.18;;
56321;SDS011;42227;6.376;-10.782;2023-04-24T01:32:35;15.35;;;7.00;;
56321;SDS011;42227;6.376;-10.782;2023-04-24T01:35:04;14.02;;;7.90;;
56321;SDS011;42227;6.376;-10.782;2023-04-24T01:37:33;20.05;;;8.05;;
56321;SDS011;42227;6.376;-10.782;2023-04-24T01:40:03;20.70;;;7.88;;
56321;SDS011;42227;6.376;-10.782;2023-04-24T01:42:35;12.88;;;7.65;;
56321;SDS011;42227;6.376;-10.782;2023-04-24T01:45:04;14.50;;;7.13;;
56321;SDS011;42227;6.376;-10.782;2023-04-24T01:47:33;22.65;;;11.02;;
56321;SDS011;42227;6.376;-10.782;2023-04-24T01:50:02;30.38;;;13.95;;
56321;SDS011;42227;6.376;-10.782;2023-04-24T01:52:31;35.95;;;15.60;;
56321;SDS011;42227;6.376;-10.782;2023-04-24T01:54:59;41.40;;;17.00;;
56321;SDS011;42227;6.376;-10.782;2023-04-24T01:57:28;26.92;;;13.40;;
56321;SDS011;42227;6.376;-10.782;2023-04-24T01:59:57;32.08;;;13.45;;
56321;SDS011;42227;6.376;-10.782;2023-04-24T02:02:25;27.02;;;10.52;;
56321;SDS011;42227;6.376;-10.782;2023-04-24T02:04:56;22.33;;;13.90;;
56321;SDS011;42227;6.376;-10.782;2023-04-24T02:07:24;27.52;;;14.45;;
56321;SDS011;42227;6.376;-10.782;2023-04-24T02:09:52;16.10;;;9.57;;
56321;SDS011;42227;6.376;-10.782;2023-04-24T02:12:21;13.70;;;8.38;;
56321;SDS011;42227;6.376;-10.782;2023-04-24T02:14:50;42.45;;;18.30;;
56321;SDS011;42227;6.376;-10.782;2023-04-24T02:17:19;28.50;;;13.55;;
56321;SDS011;42227;6.376;-10.782;2023-04-24T02:19:47;30.98;;;14.75;;
56321;SDS011;42227;6.376;-10.782;2023-04-24T02:22:16;33.35;;;14.82;;
56321;SDS011;42227;6.376;-10.782;2023-04-24T02:24:44;19.77;;;12.68;;
56321;SDS011;42227;6.376;-10.782;2023-04-24T02:27:14;16.42;;;9.85;;
56321;SDS011;42227;6.376;-10.782;2023-04-24T02:29:43;19.38;;;6.75;;
56321;SDS011;42227;6.376;-10.782;2023-04-24T02:32:11;6.15;;;4.85;;
56321;SDS011;42227;6.376;-10.782;2023-04-24T02:34:42;11.95;;;5.18;;
56321;SDS011;42227;6.376;-10.782;2023-04-24T02:37:11;11.88;;;4.82;;
56321;SDS011;42227;6.376;-10.782;2023-04-24T02:39:40;19.58;;;7.57;;
56321;SDS011;42227;6.376;-10.782;2023-04-24T02:42:08;18.33;;;10.27;;
56321;SDS011;42227;6.376;-10.782;2023-04-24T02:44:37;23.05;;;9.52;;
56321;SDS011;42227;6.376;-10.782;2023-04-24T02:47:05;22.30;;;9.05;;
56321;SDS011;42227;6.376;-10.782;2023-04-24T02:49:33;15.85;;;7.93;;
56321;SDS011;42227;6.376;-10.782;2023-04-24T02:52:01;13.63;;;7.35;;
56321;SDS011;42227;6.376;-10.782;2023-04-24T02:54:30;15.13;;;8.05;;
56321;SDS011;42227;6.376;-10.782;2023-04-24T02:56:58;15.40;;;7.95;;
56321;SDS011;42227;6.376;-10.782;2023-04-24T02:59:27;21.00;;;6.45;;
56321;SDS011;42227;6.376;-10.782;2023-04-24T03:01:55;15.02;;;6.32;;
56321;SDS011;42227;6.376;-10.782;2023-04-24T03:04:23;15.50;;;7.47;;
56321;SDS011;42227;6.376;-10.782;2023-04-24T03:06:52;11.35;;;5.60;;
56321;SDS011;42227;6.376;-10.782;2023-04-24T03:09:21;12.77;;;5.60;;
56321;SDS011;42227;6.376;-10.782;2023-04-24T03:11:49;19.70;;;6.85;;
56321;SDS011;42227;6.376;-10.782;2023-04-24T03:14:17;11.52;;;6.00;;
56321;SDS011;42227;6.376;-10.782;2023-04-24T03:16:45;18.55;;;8.55;;
56321;SDS011;42227;6.376;-10.782;2023-04-24T03:19:14;36.10;;;18.15;;
56321;SDS011;42227;6.376;-10.782;2023-04-24T03:21:56;39.25;;;20.95;;
56321;SDS011;42227;6.376;-10.782;2023-04-24T03:24:24;44.55;;;27.15;;
56321;SDS011;42227;6.376;-10.782;2023-04-24T03:26:54;69.32;;;37.08;;
56321;SDS011;42227;6.376;-10.782;2023-04-24T03:29:42;57.28;;;36.47;;
56321;SDS011;42227;6.376;-10.782;2023-04-24T03:32:11;58.47;;;37.20;;
56321;SDS011;42227;6.376;-10.782;2023-04-24T03:34:40;76.50;;;39.80;;
56321;SDS011;42227;6.376;-10.782;2023-04-24T03:37:10;69.00;;;46.95;;
56321;SDS011;42227;6.376;-10.782;2023-04-24T03:39:44;72.20;;;49.05;;
56321;SDS011;42227;6.376;-10.782;2023-04-24T03:42:14;64.55;;;44.78;;
56321;SDS011;42227;6.376;-10.782;2023-04-24T03:44:51;81.05;;;48.05;;
56321;SDS011;42227;6.376;-10.782;2023-04-24T03:47:22;80.38;;;48.42;;
56321;SDS011;42227;6.376;-10.782;2023-04-24T03:49:54;84.38;;;48.70;;
56321;SDS011;42227;6.376;-10.782;2023-04-24T03:52:23;78.95;;;51.70;;
56321;SDS011;42227;6.376;-10.782;2023-04-24T03:54:51;71.05;;;48.78;;
56321;SDS011;42227;6.376;-10.782;2023-04-24T03:57:19;73.93;;;49.05;;
56321;SDS011;42227;6.376;-10.782;2023-04-24T04:00:01;79.47;;;52.57;;
56321;SDS011;42227;6.376;-10.782;2023-04-24T04:02:40;78.80;;;51.42;;
56321;SDS011;42227;6.376;-10.782;2023-04-24T04:05:09;77.15;;;50.03;;
56321;SDS011;42227;6.376;-10.782;2023-04-24T04:07:37;68.90;;;49.63;;
56321;SDS011;42227;6.376;-10.782;2023-04-24T04:10:06;78.50;;;53.22;;
56321;SDS011;42227;6.376;-10.782;2023-04-24T04:12:36;88.47;;;57.40;;
56321;SDS011;42227;6.376;-10.782;2023-04-24T04:15:05;80.65;;;54.25;;
56321;SDS011;42227;6.376;-10.782;2023-04-24T04:17:34;92.13;;;57.45;;
56321;SDS011;42227;6.376;-10.782;2023-04-24T04:20:05;97.35;;;56.45;;
56321;SDS011;42227;6.376;-10.782;2023-04-24T04:22:34;77.78;;;55.00;;
56321;SDS011;42227;6.376;-10.782;2023-04-24T04:25:03;75.68;;;53.45;;
56321;SDS011;42227;6.376;-10.782;2023-04-24T04:27:32;81.63;;;52.85;;
56321;SDS011;42227;6.376;-10.782;2023-04-24T04:30:06;85.32;;;50.95;;
56321;SDS011;42227;6.376;-10.782;2023-04-24T04:32:45;64.53;;;46.78;;
56321;SDS011;42227;6.376;-10.782;2023-04-24T04:35:14;76.80;;;46.65;;
56321;SDS011;42227;6.376;-10.782;2023-04-24T04:37:42;72.00;;;47.20;;
56321;SDS011;42227;6.376;-10.782;2023-04-24T04:40:16;68.50;;;45.97;;
56321;SDS011;42227;6.376;-10.782;2023-04-24T04:42:50;60.22;;;44.63;;
56321;SDS011;42227;6.376;-10.782;2023-04-24T04:45:19;58.97;;;42.97;;
56321;SDS011;42227;6.376;-10.782;2023-04-24T04:48:07;74.35;;;46.45;;
56321;SDS011;42227;6.376;-10.782;2023-04-24T04:50:36;78.78;;;46.13;;
56321;SDS011;42227;6.376;-10.782;2023-04-24T04:53:07;78.95;;;45.80;;
56321;SDS011;42227;6.376;-10.782;2023-04-24T04:55:37;81.45;;;48.38;;
56321;SDS011;42227;6.376;-10.782;2023-04-24T04:58:12;76.47;;;48.88;;
56321;SDS011;42227;6.376;-10.782;2023-04-24T05:00:42;86.28;;;51.00;;
56321;SDS011;42227;6.376;-10.782;2023-04-24T05:03:27;72.35;;;48.85;;
56321;SDS011;42227;6.376;-10.782;2023-04-24T05:06:06;73.60;;;46.80;;
56321;SDS011;42227;6.376;-10.782;2023-04-24T05:08:37;70.30;;;44.37;;
56321;SDS011;42227;6.376;-10.782;2023-04-24T05:11:09;66.47;;;43.53;;
56321;SDS011;42227;6.376;-10.782;2023-04-24T05:13:38;83.90;;;45.67;;
56321;SDS011;42227;6.376;-10.782;2023-04-24T05:16:30;67.25;;;45.28;;
56321;SDS011;42227;6.376;-10.782;2023-04-24T05:18:58;68.55;;;41.38;;
56321;SDS011;42227;6.376;-10.782;2023-04-24T05:21:33;68.03;;;42.72;;
56321;SDS011;42227;6.376;-10.782;2023-04-24T05:24:01;53.67;;;37.70;;
56321;SDS011;42227;6.376;-10.782;2023-04-24T05:27:02;61.45;;;38.03;;
56321;SDS011;42227;6.376;-10.782;2023-04-24T05:29:38;64.43;;;37.65;;
56321;SDS011;42227;6.376;-10.782;2023-04-24T05:32:08;57.20;;;37.60;;
56321;SDS011;42227;6.376;-10.782;2023-04-24T05:34:37;56.20;;;36.75;;
56321;SDS011;42227;6.376;-10.782;2023-04-24T05:37:05;64.13;;;40.33;;
56321;SDS011;42227;6.376;-10.782;2023-04-24T05:39:33;53.35;;;37.25;;
56321;SDS011;42227;6.376;-10.782;2023-04-24T05:42:02;51.30;;;33.88;;
56321;SDS011;42227;6.376;-10.782;2023-04-24T05:44:31;50.60;;;34.92;;
56321;SDS011;42227;6.376;-10.782;2023-04-24T05:46:59;55.72;;;33.67;;
56321;SDS011;42227;6.376;-10.782;2023-04-24T05:49:27;51.42;;;30.17;;
56321;SDS011;42227;6.376;-10.782;2023-04-24T05:51:56;54.03;;;30.88;;
56321;SDS011;42227;6.376;-10.782;2023-04-24T05:54:25;47.90;;;34.67;;
56321;SDS011;42227;6.376;-10.782;2023-04-24T05:56:55;54.47;;;34.95;;
56321;SDS011;42227;6.376;-10.782;2023-04-24T05:59:37;61.20;;;32.90;;
56321;SDS011;42227;6.376;-10.782;2023-04-24T06:02:06;48.55;;;28.98;;
56321;SDS011;42227;6.376;-10.782;2023-04-24T06:04:35;41.50;;;25.83;;
56321;SDS011;42227;6.376;-10.782;2023-04-24T06:07:03;40.17;;;24.20;;
56321;SDS011;42227;6.376;-10.782;2023-04-24T06:09:32;34.28;;;24.05;;
56321;SDS011;42227;6.376;-10.782;2023-04-24T06:12:00;34.90;;;24.85;;
56321;SDS011;42227;6.376;-10.782;2023-04-24T06:14:42;35.90;;;22.50;;
56321;SDS011;42227;6.376;-10.782;2023-04-24T06:17:18;38.55;;;23.38;;
56321;SDS011;42227;6.376;-10.782;2023-04-24T06:19:47;32.95;;;20.83;;
56321;SDS011;42227;6.376;-10.782;2023-04-24T06:22:16;37.25;;;21.00;;
56321;SDS011;42227;6.376;-10.782;2023-04-24T06:24:44;25.67;;;18.13;;
56321;SDS011;42227;6.376;-10.782;2023-04-24T06:27:12;26.60;;;14.43;;
56321;SDS011;42227;6.376;-10.782;2023-04-24T06:29:41;24.48;;;14.45;;
56321;SDS011;42227;6.376;-10.782;2023-04-24T06:32:10;34.03;;;16.40;;
56321;SDS011;42227;6.376;-10.782;2023-04-24T06:34:38;23.23;;;15.32;;
56321;SDS011;42227;6.376;-10.782;2023-04-24T06:37:07;43.63;;;30.20;;
56321;SDS011;42227;6.376;-10.782;2023-04-24T06:39:35;58.60;;;37.17;;
56321;SDS011;42227;6.376;-10.782;2023-04-24T06:42:03;61.05;;;38.95;;
56321;SDS011;42227;6.376;-10.782;2023-04-24T06:44:33;75.22;;;46.25;;
56321;SDS011;42227;6.376;-10.782;2023-04-24T06:47:01;60.53;;;39.67;;
56321;SDS011;42227;6.376;-10.782;2023-04-24T06:49:30;24.17;;;14.02;;
56321;SDS011;42227;6.376;-10.782;2023-04-24T06:51:58;29.80;;;13.18;;
56321;SDS011;42227;6.376;-10.782;2023-04-24T06:54:26;27.88;;;13.82;;
56321;SDS011;42227;6.376;-10.782;2023-04-24T06:56:55;26.55;;;14.38;;
56321;SDS011;42227;6.376;-10.782;2023-04-24T06:59:24;28.23;;;15.55;;
56321;SDS011;42227;6.376;-10.782;2023-04-24T07:01:52;32.83;;;16.05;;
56321;SDS011;42227;6.376;-10.782;2023-04-24T07:04:22;25.08;;;13.20;;
56321;SDS011;42227;6.376;-10.782;2023-04-24T07:06:51;25.33;;;12.27;;
56321;SDS011;42227;6.376;-10.782;2023-04-24T07:09:19;33.00;;;14.63;;
56321;SDS011;42227;6.376;-10.782;2023-04-24T07:11:47;22.50;;;13.73;;
56321;SDS011;42227;6.376;-10.782;2023-04-24T07:14:16;20.73;;;11.88;;
56321;SDS011;42227;6.376;-10.782;2023-04-24T07:16:44;17.42;;;12.27;;
56321;SDS011;42227;6.376;-10.782;2023-04-24T07:19:13;22.23;;;12.35;;
56321;SDS011;42227;6.376;-10.782;2023-04-24T07:21:41;27.60;;;14.48;;
56321;SDS011;42227;6.376;-10.782;2023-04-24T07:24:09;23.77;;;13.27;;
56321;SDS011;42227;6.376;-10.782;2023-04-24T07:26:38;27.98;;;12.23;;
56321;SDS011;42227;6.376;-10.782;2023-04-24T07:29:06;25.77;;;11.65;;
56321;SDS011;42227;6.376;-10.782;2023-04-24T07:31:35;16.63;;;11.00;;
56321;SDS011;42227;6.376;-10.782;2023-04-24T07:34:04;23.90;;;11.55;;
56321;SDS011;42227;6.376;-10.782;2023-04-24T07:36:32;19.88;;;11.57;;
56321;SDS011;42227;6.376;-10.782;2023-04-24T07:39:00;28.27;;;13.63;;
56321;SDS011;42227;6.376;-10.782;2023-04-24T07:41:29;32.50;;;17.38;;
56321;SDS011;42227;6.376;-10.782;2023-04-24T07:48:24;46.75;;;26.38;;
56321;SDS011;42227;6.376;-10.782;2023-04-24T07:50:52;38.22;;;22.00;;
56321;SDS011;42227;6.376;-10.782;2023-04-24T07:53:21;21.40;;;13.90;;
56321;SDS011;42227;6.376;-10.782;2023-04-24T07:55:49;19.42;;;12.68;;
56321;SDS011;42227;6.376;-10.782;2023-04-24T07:58:17;21.85;;;14.13;;
56321;SDS011;42227;6.376;-10.782;2023-04-24T08:00:46;23.20;;;14.13;;
56321;SDS011;42227;6.376;-10.782;2023-04-24T08:03:14;38.08;;;11.40;;
56321;SDS011;42227;6.376;-10.782;2023-04-24T08:05:43;23.58;;;12.65;;
56321;SDS011;42227;6.376;-10.782;2023-04-24T08:08:11;22.48;;;11.10;;
56321;SDS011;42227;6.376;-10.782;2023-04-24T08:10:39;21.27;;;11.13;;
56321;SDS011;42227;6.376;-10.782;2023-04-24T08:13:07;21.50;;;11.75;;
56321;SDS011;42227;6.376;-10.782;2023-04-24T08:15:35;23.38;;;11.65;;
56321;SDS011;42227;6.376;-10.782;2023-04-24T08:18:04;22.08;;;11.57;;
56321;SDS011;42227;6.376;-10.782;2023-04-24T08:20:32;18.83;;;11.43;;
56321;SDS011;42227;6.376;-10.782;2023-04-24T08:23:01;26.15;;;11.32;;
56321;SDS011;42227;6.376;-10.782;2023-04-24T08:25:29;15.70;;;11.18;;
56321;SDS011;42227;6.376;-10.782;2023-04-24T08:27:58;15.43;;;11.43;;
56321;SDS011;42227;6.376;-10.782;2023-04-24T08:30:26;15.73;;;10.23;;
56321;SDS011;42227;6.376;-10.782;2023-04-24T08:32:54;24.85;;;11.23;;
56321;SDS011;42227;6.376;-10.782;2023-04-24T08:35:23;25.70;;;13.18;;
56321;SDS011;42227;6.376;-10.782;2023-04-24T08:37:52;31.20;;;16.52;;
56321;SDS011;42227;6.376;-10.782;2023-04-24T08:40:22;24.52;;;11.23;;
56321;SDS011;42227;6.376;-10.782;2023-04-24T08:42:55;26.42;;;15.43;;
56321;SDS011;42227;6.376;-10.782;2023-04-24T08:45:24;24.90;;;14.65;;
56321;SDS011;42227;6.376;-10.782;2023-04-24T08:47:52;26.73;;;13.88;;
56321;SDS011;42227;6.376;-10.782;2023-04-24T08:50:21;21.83;;;14.40;;
56321;SDS011;42227;6.376;-10.782;2023-04-24T08:52:50;27.20;;;15.18;;
56321;SDS011;42227;6.376;-10.782;2023-04-24T08:55:19;34.40;;;13.85;;
56321;SDS011;42227;6.376;-10.782;2023-04-24T08:57:52;21.27;;;12.77;;
56321;SDS011;42227;6.376;-10.782;2023-04-24T09:00:21;21.48;;;11.73;;
56321;SDS011;42227;6.376;-10.782;2023-04-24T09:02:49;20.05;;;11.10;;
56321;SDS011;42227;6.376;-10.782;2023-04-24T09:05:18;20.50;;;8.98;;
56321;SDS011;42227;6.376;-10.782;2023-04-24T09:07:55;12.85;;;7.07;;
56321;SDS011;42227;6.376;-10.782;2023-04-24T09:10:24;12.95;;;8.60;;
56321;SDS011;42227;6.376;-10.782;2023-04-24T09:12:53;8.90;;;6.43;;
56321;SDS011;42227;6.376;-10.782;2023-04-24T09:15:22;13.27;;;6.13;;
56321;SDS011;42227;6.376;-10.782;2023-04-24T09:17:51;9.43;;;6.53;;
56321;SDS011;42227;6.376;-10.782;2023-04-24T09:20:20;11.40;;;6.63;;
56321;SDS011;42227;6.376;-10.782;2023-04-24T09:22:53;13.57;;;7.40;;
56321;SDS011;42227;6.376;-10.782;2023-04-24T09:25:25;8.45;;;6.38;;
56321;SDS011;42227;6.376;-10.782;2023-04-24T09:28:02;13.70;;;7.25;;
56321;SDS011;42227;6.376;-10.782;2023-04-24T09:30:32;12.57;;;7.25;;
56321;SDS011;42227;6.376;-10.782;2023-04-24T09:33:13;25.13;;;11.18;;
56321;SDS011;42227;6.376;-10.782;2023-04-24T09:35:51;10.27;;;6.63;;
56321;SDS011;42227;6.376;-10.782;2023-04-24T09:38:19;14.85;;;6.65;;
56321;SDS011;42227;6.376;-10.782;2023-04-24T09:41:06;18.30;;;5.80;;
56321;SDS011;42227;6.376;-10.782;2023-04-24T09:43:35;16.63;;;8.68;;
56321;SDS011;42227;6.376;-10.782;2023-04-24T09:46:05;17.50;;;8.65;;
56321;SDS011;42227;6.376;-10.782;2023-04-24T09:48:37;28.30;;;14.75;;
56321;SDS011;42227;6.376;-10.782;2023-04-24T09:51:06;19.48;;;11.75;;
56321;SDS011;42227;6.376;-10.782;2023-04-24T09:53:34;21.65;;;10.45;;
56321;SDS011;42227;6.376;-10.782;2023-04-24T09:56:10;20.50;;;14.98;;
56321;SDS011;42227;6.376;-10.782;2023-04-24T09:58:39;32.33;;;9.15;;
56321;SDS011;42227;6.376;-10.782;2023-04-24T10:01:07;22.38;;;7.72;;
56321;SDS011;42227;6.376;-10.782;2023-04-24T10:03:36;19.83;;;8.68;;
56321;SDS011;42227;6.376;-10.782;2023-04-24T10:06:04;11.18;;;7.80;;
56321;SDS011;42227;6.376;-10.782;2023-04-24T10:08:36;22.23;;;8.70;;
56321;SDS011;42227;6.376;-10.782;2023-04-24T10:11:04;27.80;;;10.73;;
56321;SDS011;42227;6.376;-10.782;2023-04-24T10:13:33;22.15;;;8.93;;
56321;SDS011;42227;6.376;-10.782;2023-04-24T10:16:02;23.10;;;9.88;;
56321;SDS011;42227;6.376;-10.782;2023-04-24T10:18:31;25.48;;;11.13;;
56321;SDS011;42227;6.376;-10.782;2023-04-24T10:21:01;48.80;;;14.43;;
56321;SDS011;42227;6.376;-10.782;2023-04-24T10:23:29;25.92;;;11.20;;
56321;SDS011;42227;6.376;-10.782;2023-04-24T10:25:58;19.88;;;7.28;;
56321;SDS011;42227;6.376;-10.782;2023-04-24T10:28:28;23.23;;;7.05;;
56321;SDS011;42227;6.376;-10.782;2023-04-24T10:30:59;24.38;;;8.63;;
56321;SDS011;42227;6.376;-10.782;2023-04-24T10:33:29;21.55;;;7.32;;
56321;SDS011;42227;6.376;-10.782;2023-04-24T10:35:58;11.05;;;5.97;;
56321;SDS011;42227;6.376;-10.782;2023-04-24T10:38:27;12.18;;;6.47;;
56321;SDS011;42227;6.376;-10.782;2023-04-24T10:41:06;18.23;;;8.75;;
56321;SDS011;42227;6.376;-10.782;2023-04-24T10:43:36;11.95;;;6.85;;
56321;SDS011;42227;6.376;-10.782;2023-04-24T10:46:06;14.70;;;8.20;;
56321;SDS011;42227;6.376;-10.782;2023-04-24T10:48:36;16.25;;;8.32;;
56321;SDS011;42227;6.376;-10.782;2023-04-24T10:51:10;17.52;;;8.48;;
56321;SDS011;42227;6.376;-10.782;2023-04-24T10:53:40;18.65;;;5.53;;
56321;SDS011;42227;6.376;-10.782;2023-04-24T10:56:08;23.30;;;7.57;;
56321;SDS011;42227;6.376;-10.782;2023-04-24T10:58:49;11.30;;;7.43;;
56321;SDS011;42227;6.376;-10.782;2023-04-24T11:03:58;19.25;;;6.03;;
56321;SDS011;42227;6.376;-10.782;2023-04-24T11:06:35;15.05;;;4.35;;
56321;SDS011;42227;6.376;-10.782;2023-04-24T11:09:07;15.27;;;6.03;;
56321;SDS011;42227;6.376;-10.782;2023-04-24T11:11:37;14.90;;;6.40;;
56321;SDS011;42227;6.376;-10.782;2023-04-24T11:14:14;16.60;;;9.73;;
56321;SDS011;42227;6.376;-10.782;2023-04-24T11:16:44;9.82;;;3.85;;
56321;SDS011;42227;6.376;-10.782;2023-04-24T11:19:20;27.23;;;5.05;;
56321;SDS011;42227;6.376;-10.782;2023-04-24T11:22:04;14.80;;;5.03;;
56321;SDS011;42227;6.376;-10.782;2023-04-24T11:27:21;14.93;;;6.38;;
56321;SDS011;42227;6.376;-10.782;2023-04-24T11:35:38;6.20;;;3.90;;
56321;SDS011;42227;6.376;-10.782;2023-04-24T11:37:56;9.88;;;4.50;;
56321;SDS011;42227;6.376;-10.782;2023-04-24T11:40:28;19.10;;;7.95;;
56321;SDS011;42227;6.376;-10.782;2023-04-24T11:42:56;14.40;;;6.22;;
56321;SDS011;42227;6.376;-10.782;2023-04-24T11:45:28;9.63;;;5.88;;
56321;SDS011;42227;6.376;-10.782;2023-04-24T11:47:58;26.38;;;7.10;;
56321;SDS011;42227;6.376;-10.782;2023-04-24T11:50:26;9.05;;;5.00;;
56321;SDS011;42227;6.376;-10.782;2023-04-24T11:52:55;8.57;;;5.03;;
56321;SDS011;42227;6.376;-10.782;2023-04-24T11:55:27;21.98;;;6.32;;
56321;SDS011;42227;6.376;-10.782;2023-04-24T11:57:57;11.57;;;5.55;;
56321;SDS011;42227;6.376;-10.782;2023-04-24T12:03:08;13.43;;;5.07;;
56321;SDS011;42227;6.376;-10.782;2023-04-24T12:05:39;15.32;;;5.55;;
56321;SDS011;42227;6.376;-10.782;2023-04-24T12:08:08;13.52;;;4.55;;
56321;SDS011;42227;6.376;-10.782;2023-04-24T12:10:36;15.07;;;5.47;;
56321;SDS011;42227;6.376;-10.782;2023-04-24T12:13:04;8.43;;;4.47;;
56321;SDS011;42227;6.376;-10.782;2023-04-24T12:15:32;6.50;;;4.43;;
56321;SDS011;42227;6.376;-10.782;2023-04-24T12:18:01;8.40;;;4.72;;
56321;SDS011;42227;6.376;-10.782;2023-04-24T12:20:31;8.40;;;3.28;;
56321;SDS011;42227;6.376;-10.782;2023-04-24T12:23:00;18.05;;;4.03;;
56321;SDS011;42227;6.376;-10.782;2023-04-24T12:25:30;5.25;;;2.97;;
56321;SDS011;42227;6.376;-10.782;2023-04-24T12:30:32;4.93;;;3.05;;
56321;SDS011;42227;6.376;-10.782;2023-04-24T12:33:02;10.15;;;3.40;;
56321;SDS011;42227;6.376;-10.782;2023-04-24T12:35:31;8.98;;;3.65;;
56321;SDS011;42227;6.376;-10.782;2023-04-24T12:40:43;8.38;;;3.90;;
56321;SDS011;42227;6.376;-10.782;2023-04-24T12:45:43;19.63;;;4.15;;
56321;SDS011;42227;6.376;-10.782;2023-04-24T12:48:12;10.13;;;4.05;;
56321;SDS011;42227;6.376;-10.782;2023-04-24T12:50:41;6.45;;;3.72;;
56321;SDS011;42227;6.376;-10.782;2023-04-24T12:53:14;9.98;;;2.67;;
56321;SDS011;42227;6.376;-10.782;2023-04-24T12:55:42;10.00;;;4.70;;
56321;SDS011;42227;6.376;-10.782;2023-04-24T12:58:11;6.57;;;3.28;;
56321;SDS011;42227;6.376;-10.782;2023-04-24T13:00:39;6.15;;;3.75;;
56321;SDS011;42227;6.376;-10.782;2023-04-24T13:03:07;8.75;;;4.03;;
56321;SDS011;42227;6.376;-10.782;2023-04-24T13:05:36;9.02;;;3.42;;
56321;SDS011;42227;6.376;-10.782;2023-04-24T13:08:04;6.43;;;3.58;;
56321;SDS011;42227;6.376;-10.782;2023-04-24T13:10:32;18.17;;;4.32;;
56321;SDS011;42227;6.376;-10.782;2023-04-24T13:13:01;7.70;;;3.92;;
56321;SDS011;42227;6.376;-10.782;2023-04-24T13:15:30;14.18;;;5.18;;
56321;SDS011;42227;6.376;-10.782;2023-04-24T13:17:58;6.35;;;3.30;;
56321;SDS011;42227;6.376;-10.782;2023-04-24T13:20:26;5.72;;;3.13;;
56321;SDS011;42227;6.376;-10.782;2023-04-24T13:22:55;5.95;;;3.08;;
56321;SDS011;42227;6.376;-10.782;2023-04-24T13:25:23;8.48;;;3.80;;
56321;SDS011;42227;6.376;-10.782;2023-04-24T13:27:51;12.00;;;4.53;;
56321;SDS011;42227;6.376;-10.782;2023-04-24T13:30:19;14.07;;;5.28;;
56321;SDS011;42227;6.376;-10.782;2023-04-24T13:32:48;7.85;;;5.38;;
56321;SDS011;42227;6.376;-10.782;2023-04-24T13:35:16;15.25;;;5.28;;
56321;SDS011;42227;6.376;-10.782;2023-04-24T13:37:44;8.23;;;4.53;;
56321;SDS011;42227;6.376;-10.782;2023-04-24T13:40:13;13.75;;;5.43;;
56321;SDS011;42227;6.376;-10.782;2023-04-24T13:42:41;9.13;;;5.70;;
56321;SDS011;42227;6.376;-10.782;2023-04-24T13:45:10;11.35;;;5.63;;
56321;SDS011;42227;6.376;-10.782;2023-04-24T13:47:51;8.77;;;5.20;;
56321;SDS011;42227;6.376;-10.782;2023-04-24T13:50:20;10.32;;;5.20;;
56321;SDS011;42227;6.376;-10.782;2023-04-24T13:52:48;5.72;;;3.45;;
56321;SDS011;42227;6.376;-10.782;2023-04-24T13:55:17;19.52;;;6.13;;
56321;SDS011;42227;6.376;-10.782;2023-04-24T13:57:49;13.18;;;4.22;;
56321;SDS011;42227;6.376;-10.782;2023-04-24T14:00:18;15.00;;;5.55;;
56321;SDS011;42227;6.376;-10.782;2023-04-24T14:02:46;28.15;;;8.45;;
56321;SDS011;42227;6.376;-10.782;2023-04-24T14:05:15;22.23;;;16.58;;
56321;SDS011;42227;6.376;-10.782;2023-04-24T14:07:43;23.17;;;20.63;;
56321;SDS011;42227;6.376;-10.782;2023-04-24T14:10:13;22.70;;;9.77;;
56321;SDS011;42227;6.376;-10.782;2023-04-24T14:12:41;15.50;;;12.68;;
56321;SDS011;42227;6.376;-10.782;2023-04-24T14:15:10;18.95;;;8.55;;
56321;SDS011;42227;6.376;-10.782;2023-04-24T14:17:38;16.05;;;5.53;;
56321;SDS011;42227;6.376;-10.782;2023-04-24T14:20:08;12.70;;;6.75;;
56321;SDS011;42227;6.376;-10.782;2023-04-24T14:22:37;13.75;;;6.38;;
56321;SDS011;42227;6.376;-10.782;2023-04-24T14:25:05;23.30;;;8.60;;
56321;SDS011;42227;6.376;-10.782;2023-04-24T14:27:34;12.43;;;7.78;;
56321;SDS011;42227;6.376;-10.782;2023-04-24T14:30:02;8.30;;;4.45;;
56321;SDS011;42227;6.376;-10.782;2023-04-24T14:32:32;19.95;;;7.32;;
56321;SDS011;42227;6.376;-10.782;2023-04-24T14:35:00;15.27;;;5.93;;
56321;SDS011;42227;6.376;-10.782;2023-04-24T14:37:28;18.45;;;7.20;;
56321;SDS011;42227;6.376;-10.782;2023-04-24T14:39:57;28.73;;;10.10;;
56321;SDS011;42227;6.376;-10.782;2023-04-24T14:42:45;11.93;;;5.95;;
56321;SDS011;42227;6.376;-10.782;2023-04-24T14:45:17;12.27;;;4.75;;
56321;SDS011;42227;6.376;-10.782;2023-04-24T14:47:45;8.15;;;3.88;;
56321;SDS011;42227;6.376;-10.782;2023-04-24T14:50:14;22.63;;;4.90;;
56321;SDS011;42227;6.376;-10.782;2023-04-24T14:52:42;5.28;;;3.85;;
56321;SDS011;42227;6.376;-10.782;2023-04-24T14:55:13;16.65;;;5.63;;
56321;SDS011;42227;6.376;-10.782;2023-04-24T14:57:41;10.23;;;4.57;;